sensor_id;sensor_type;location;lat;lon;timestamp;pressure;altitude;pressure_sealevel;temperature;humidity
81033;BME280;70514;52.478;6.102;2023-12-07T00:00:19;102092.41;;;0.16;100.00
81033;BME280;70514;52.478;6.102;2023-12-07T00:02:46;102095.44;;;0.47;100.00
81033;BME280;70514;52.478;6.102;2023-12-07T00:05:14;102089.84;;;0.64;100.00
81033;BME280;70514;52.478;6.102;2023-12-07T00:07:42;102095.75;;;0.76;100.00
81033;BME280;70514;52.478;6.102;2023-12-07T00:10:10;102090.78;;;1.02;100.00
81033;BME280;70514;52.478;6.102;2023-12-07T00:12:38;102082.06;;;1.37;100.00
81033;BME280;70514;52.478;6.102;2023-12-07T00:15:06;102087.81;;;1.34;100.00
81033;BME280;70514;52.478;6.102;2023-12-07T00:17:34;102080.69;;;1.28;100.00
81033;BME280;70514;52.478;6.102;2023-12-07T00:20:02;102088.09;;;1.25;100.00
81033;BME280;70514;52.478;6.102;2023-12-07T00:22:31;102093.38;;;1.28;100.00
81033;BME280;70514;52.478;6.102;2023-12-07T00:24:59;102090.72;;;1.40;100.00
81033;BME280;70514;52.478;6.102;2023-12-07T00:27:27;102094.97;;;1.15;100.00
81033;BME280;70514;52.478;6.102;2023-12-07T00:29:54;102091.72;;;1.04;100.00
81033;BME280;70514;52.478;6.102;2023-12-07T00:32:22;102094.59;;;1.09;100.00
81033;BME280;70514;52.478;6.102;2023-12-07T00:34:50;102087.34;;;1.02;100.00
81033;BME280;70514;52.478;6.102;2023-12-07T00:37:19;102087.66;;;1.06;100.00
81033;BME280;70514;52.478;6.102;2023-12-07T00:39:47;102081.59;;;1.04;100.00
81033;BME280;70514;52.478;6.102;2023-12-07T00:42:15;102090.22;;;1.19;100.00
81033;BME280;70514;52.478;6.102;2023-12-07T00:44:42;102088.25;;;1.02;100.00
81033;BME280;70514;52.478;6.102;2023-12-07T00:47:10;102086.81;;;0.81;100.00
81033;BME280;70514;52.478;6.102;2023-12-07T00:49:39;102099.78;;;0.85;100.00
81033;BME280;70514;52.478;6.102;2023-12-07T00:52:08;102101.69;;;0.52;100.00
81033;BME280;70514;52.478;6.102;2023-12-07T00:54:36;102094.81;;;0.26;100.00
81033;BME280;70514;52.478;6.102;2023-12-07T00:57:04;102100.09;;;0.17;100.00
81033;BME280;70514;52.478;6.102;2023-12-07T00:59:32;102103.22;;;0.13;100.00
81033;BME280;70514;52.478;6.102;2023-12-07T01:02:04;102098.78;;;0.11;100.00
81033;BME280;70514;52.478;6.102;2023-12-07T01:04:32;102106.31;;;0.09;100.00
81033;BME280;70514;52.478;6.102;2023-12-07T01:07:01;102102.63;;;0.17;100.00
81033;BME280;70514;52.478;6.102;2023-12-07T01:09:29;102110.84;;;0.74;100.00
81033;BME280;70514;52.478;6.102;2023-12-07T01:11:56;102098.78;;;1.08;100.00
81033;BME280;70514;52.478;6.102;2023-12-07T01:14:25;102102.38;;;1.63;100.00
81033;BME280;70514;52.478;6.102;2023-12-07T01:16:53;102093.19;;;1.52;100.00
81033;BME280;70514;52.478;6.102;2023-12-07T01:19:21;102098.09;;;1.11;100.00
81033;BME280;70514;52.478;6.102;2023-12-07T01:21:49;102099.16;;;0.76;100.00
81033;BME280;70514;52.478;6.102;2023-12-07T01:24:17;102105.78;;;0.74;100.00
81033;BME280;70514;52.478;6.102;2023-12-07T01:26:44;102114.56;;;0.55;100.00
81033;BME280;70514;52.478;6.102;2023-12-07T01:29:12;102107.56;;;0.39;100.00
81033;BME280;70514;52.478;6.102;2023-12-07T01:31:41;102109.88;;;0.36;100.00
81033;BME280;70514;52.478;6.102;2023-12-07T01:34:10;102111.00;;;0.28;100.00
81033;BME280;70514;52.478;6.102;2023-12-07T01:36:38;102100.69;;;0.13;100.00
81033;BME280;70514;52.478;6.102;2023-12-07T01:39:06;102103.78;;;0.09;100.00
81033;BME280;70514;52.478;6.102;2023-12-07T01:41:35;102108.00;;;0.95;100.00
81033;BME280;70514;52.478;6.102;2023-12-07T01:44:03;102099.50;;;1.19;100.00
81033;BME280;70514;52.478;6.102;2023-12-07T01:46:32;102116.28;;;0.92;100.00
81033;BME280;70514;52.478;6.102;2023-12-07T01:49:01;102117.59;;;0.62;100.00
81033;BME280;70514;52.478;6.102;2023-12-07T01:51:30;102105.44;;;1.70;100.00
81033;BME280;70514;52.478;6.102;2023-12-07T01:53:58;102111.72;;;2.30;100.00
81033;BME280;70514;52.478;6.102;2023-12-07T01:56:27;102112.72;;;1.92;100.00
81033;BME280;70514;52.478;6.102;2023-12-07T01:58:55;102114.69;;;1.44;100.00
81033;BME280;70514;52.478;6.102;2023-12-07T02:01:23;102110.44;;;1.18;100.00
81033;BME280;70514;52.478;6.102;2023-12-07T02:03:51;102116.69;;;0.73;100.00
81033;BME280;70514;52.478;6.102;2023-12-07T02:06:19;102109.09;;;0.98;100.00
81033;BME280;70514;52.478;6.102;2023-12-07T02:08:48;102121.13;;;0.89;100.00
81033;BME280;70514;52.478;6.102;2023-12-07T02:11:16;102104.00;;;1.23;100.00
81033;BME280;70514;52.478;6.102;2023-12-07T02:13:43;102109.28;;;1.01;100.00
81033;BME280;70514;52.478;6.102;2023-12-07T02:16:23;102116.09;;;0.53;100.00
81033;BME280;70514;52.478;6.102;2023-12-07T02:19:47;102117.41;;;0.11;100.00
81033;BME280;70514;52.478;6.102;2023-12-07T02:22:06;102121.72;;;0.49;100.00
81033;BME280;70514;52.478;6.102;2023-12-07T02:24:37;102117.56;;;0.37;100.00
81033;BME280;70514;52.478;6.102;2023-12-07T02:27:05;102123.97;;;0.32;100.00
81033;BME280;70514;52.478;6.102;2023-12-07T02:29:33;102120.94;;;0.13;100.00
81033;BME280;70514;52.478;6.102;2023-12-07T02:32:00;102116.75;;;-0.10;100.00
81033;BME280;70514;52.478;6.102;2023-12-07T02:34:28;102110.50;;;-0.03;100.00
81033;BME280;70514;52.478;6.102;2023-12-07T02:36:57;102106.63;;;-0.10;100.00
81033;BME280;70514;52.478;6.102;2023-12-07T02:39:26;102115.34;;;-0.29;100.00
81033;BME280;70514;52.478;6.102;2023-12-07T02:41:55;102112.81;;;-0.29;100.00
81033;BME280;70514;52.478;6.102;2023-12-07T02:44:24;102106.31;;;-0.03;100.00
81033;BME280;70514;52.478;6.102;2023-12-07T02:46:52;102102.00;;;-0.04;100.00
81033;BME280;70514;52.478;6.102;2023-12-07T02:49:19;102105.97;;;-0.30;100.00
81033;BME280;70514;52.478;6.102;2023-12-07T02:51:47;102096.97;;;-0.38;100.00
81033;BME280;70514;52.478;6.102;2023-12-07T02:54:15;102101.91;;;-0.52;100.00
81033;BME280;70514;52.478;6.102;2023-12-07T02:56:43;102111.25;;;-0.39;100.00
81033;BME280;70514;52.478;6.102;2023-12-07T02:59:11;102114.13;;;-0.34;100.00
81033;BME280;70514;52.478;6.102;2023-12-07T03:01:39;102096.28;;;-0.59;100.00
81033;BME280;70514;52.478;6.102;2023-12-07T03:04:06;102098.03;;;-0.70;100.00
81033;BME280;70514;52.478;6.102;2023-12-07T03:06:34;102104.56;;;-0.27;100.00
81033;BME280;70514;52.478;6.102;2023-12-07T03:09:02;102101.59;;;-0.21;100.00
81033;BME280;70514;52.478;6.102;2023-12-07T03:11:30;102094.72;;;0.13;100.00
81033;BME280;70514;52.478;6.102;2023-12-07T03:13:58;102103.50;;;0.29;100.00
81033;BME280;70514;52.478;6.102;2023-12-07T03:16:26;102099.78;;;0.24;100.00
81033;BME280;70514;52.478;6.102;2023-12-07T03:18:54;102105.53;;;0.10;100.00
81033;BME280;70514;52.478;6.102;2023-12-07T03:21:22;102107.28;;;0.11;100.00
81033;BME280;70514;52.478;6.102;2023-12-07T03:23:50;102107.28;;;0.84;100.00
81033;BME280;70514;52.478;6.102;2023-12-07T03:26:18;102112.19;;;0.69;100.00
81033;BME280;70514;52.478;6.102;2023-12-07T03:28:45;102115.75;;;0.60;100.00
81033;BME280;70514;52.478;6.102;2023-12-07T03:31:13;102104.66;;;-0.02;100.00
81033;BME280;70514;52.478;6.102;2023-12-07T03:33:42;102115.59;;;0.33;100.00
81033;BME280;70514;52.478;6.102;2023-12-07T03:36:13;102119.19;;;-0.11;100.00
81033;BME280;70514;52.478;6.102;2023-12-07T03:38:40;102111.16;;;-0.40;100.00
81033;BME280;70514;52.478;6.102;2023-12-07T03:41:08;102119.47;;;0.28;100.00
81033;BME280;70514;52.478;6.102;2023-12-07T03:43:36;102117.16;;;0.68;100.00
81033;BME280;70514;52.478;6.102;2023-12-07T03:46:04;102126.09;;;0.63;100.00
81033;BME280;70514;52.478;6.102;2023-12-07T03:48:33;102127.81;;;0.75;100.00
81033;BME280;70514;52.478;6.102;2023-12-07T03:51:01;102130.66;;;0.43;100.00
81033;BME280;70514;52.478;6.102;2023-12-07T03:53:29;102125.41;;;0.40;100.00
81033;BME280;70514;52.478;6.102;2023-12-07T03:55:57;102131.97;;;-0.21;100.00
81033;BME280;70514;52.478;6.102;2023-12-07T03:58:24;102126.75;;;0.35;100.00
81033;BME280;70514;52.478;6.102;2023-12-07T04:00:52;102127.25;;;-0.17;100.00
81033;BME280;70514;52.478;6.102;2023-12-07T04:03:20;102131.91;;;-0.56;100.00
81033;BME280;70514;52.478;6.102;2023-12-07T04:05:48;102135.47;;;0.04;100.00
81033;BME280;70514;52.478;6.102;2023-12-07T04:08:15;102144.03;;;0.29;100.00
81033;BME280;70514;52.478;6.102;2023-12-07T04:10:43;102128.22;;;0.09;100.00
81033;BME280;70514;52.478;6.102;2023-12-07T04:13:11;102125.31;;;0.27;100.00
81033;BME280;70514;52.478;6.102;2023-12-07T04:15:39;102134.06;;;0.56;100.00
81033;BME280;70514;52.478;6.102;2023-12-07T04:18:07;102127.97;;;1.15;100.00
81033;BME280;70514;52.478;6.102;2023-12-07T04:20:34;102128.75;;;1.14;100.00
81033;BME280;70514;52.478;6.102;2023-12-07T04:23:02;102136.81;;;1.33;100.00
81033;BME280;70514;52.478;6.102;2023-12-07T04:25:30;102130.22;;;2.14;100.00
81033;BME280;70514;52.478;6.102;2023-12-07T04:27:59;102131.94;;;2.28;100.00
81033;BME280;70514;52.478;6.102;2023-12-07T04:30:26;102127.41;;;2.50;100.00
81033;BME280;70514;52.478;6.102;2023-12-07T04:32:54;102125.81;;;1.59;100.00
81033;BME280;70514;52.478;6.102;2023-12-07T04:35:22;102132.28;;;0.91;100.00
81033;BME280;70514;52.478;6.102;2023-12-07T04:37:50;102129.44;;;1.49;100.00
81033;BME280;70514;52.478;6.102;2023-12-07T04:40:18;102120.53;;;1.43;100.00
81033;BME280;70514;52.478;6.102;2023-12-07T04:42:47;102122.59;;;1.10;100.00
81033;BME280;70514;52.478;6.102;2023-12-07T04:45:15;102121.00;;;1.50;100.00
81033;BME280;70514;52.478;6.102;2023-12-07T04:47:42;102117.16;;;1.31;100.00
81033;BME280;70514;52.478;6.102;2023-12-07T04:50:10;102125.88;;;0.71;100.00
81033;BME280;70514;52.478;6.102;2023-12-07T04:52:38;102115.28;;;2.05;100.00
81033;BME280;70514;52.478;6.102;2023-12-07T04:55:06;102121.25;;;2.47;100.00
81033;BME280;70514;52.478;6.102;2023-12-07T04:57:35;102120.50;;;1.30;100.00
81033;BME280;70514;52.478;6.102;2023-12-07T05:00:04;102121.69;;;1.10;100.00
81033;BME280;70514;52.478;6.102;2023-12-07T05:02:37;102118.31;;;0.84;100.00
81033;BME280;70514;52.478;6.102;2023-12-07T05:05:05;102121.81;;;0.25;100.00
81033;BME280;70514;52.478;6.102;2023-12-07T05:07:33;102126.88;;;0.25;100.00
81033;BME280;70514;52.478;6.102;2023-12-07T05:10:01;102120.47;;;0.92;100.00
81033;BME280;70514;52.478;6.102;2023-12-07T05:12:30;102136.63;;;0.32;100.00
81033;BME280;70514;52.478;6.102;2023-12-07T05:14:58;102135.16;;;0.59;100.00
81033;BME280;70514;52.478;6.102;2023-12-07T05:17:26;102130.34;;;1.00;100.00
81033;BME280;70514;52.478;6.102;2023-12-07T05:19:53;102126.34;;;1.04;100.00
81033;BME280;70514;52.478;6.102;2023-12-07T05:22:21;102122.66;;;1.37;100.00
81033;BME280;70514;52.478;6.102;2023-12-07T05:24:49;102118.69;;;1.53;100.00
81033;BME280;70514;52.478;6.102;2023-12-07T05:27:18;102111.28;;;1.83;100.00
81033;BME280;70514;52.478;6.102;2023-12-07T05:29:46;102108.41;;;1.52;100.00
81033;BME280;70514;52.478;6.102;2023-12-07T05:32:13;102126.31;;;1.66;100.00
81033;BME280;70514;52.478;6.102;2023-12-07T05:34:41;102126.22;;;0.53;100.00
81033;BME280;70514;52.478;6.102;2023-12-07T05:37:09;102126.56;;;0.09;100.00
81033;BME280;70514;52.478;6.102;2023-12-07T05:39:37;102125.22;;;1.12;100.00
81033;BME280;70514;52.478;6.102;2023-12-07T05:42:05;102107.66;;;1.53;100.00
81033;BME280;70514;52.478;6.102;2023-12-07T05:44:33;102114.22;;;1.24;100.00
81033;BME280;70514;52.478;6.102;2023-12-07T05:47:01;102125.50;;;0.42;100.00
81033;BME280;70514;52.478;6.102;2023-12-07T05:49:28;102124.78;;;-0.04;100.00
81033;BME280;70514;52.478;6.102;2023-12-07T05:51:58;102118.47;;;-0.67;100.00
81033;BME280;70514;52.478;6.102;2023-12-07T05:54:25;102113.41;;;-0.67;100.00
81033;BME280;70514;52.478;6.102;2023-12-07T05:56:53;102113.00;;;-0.61;100.00
81033;BME280;70514;52.478;6.102;2023-12-07T05:59:21;102119.97;;;-0.47;100.00
81033;BME280;70514;52.478;6.102;2023-12-07T06:01:51;102109.50;;;-0.28;100.00
81033;BME280;70514;52.478;6.102;2023-12-07T06:04:19;102106.19;;;-0.74;100.00
81033;BME280;70514;52.478;6.102;2023-12-07T06:06:47;102122.19;;;-0.85;100.00
81033;BME280;70514;52.478;6.102;2023-12-07T06:09:15;102121.53;;;-0.94;100.00
81033;BME280;70514;52.478;6.102;2023-12-07T06:11:43;102117.94;;;-1.08;100.00
81033;BME280;70514;52.478;6.102;2023-12-07T06:14:10;102119.06;;;-1.04;100.00
81033;BME280;70514;52.478;6.102;2023-12-07T06:16:39;102122.06;;;-0.41;100.00
81033;BME280;70514;52.478;6.102;2023-12-07T06:19:07;102114.81;;;-0.82;100.00
81033;BME280;70514;52.478;6.102;2023-12-07T06:21:35;102117.41;;;-0.35;100.00
81033;BME280;70514;52.478;6.102;2023-12-07T06:24:02;102120.78;;;0.47;100.00
81033;BME280;70514;52.478;6.102;2023-12-07T06:26:30;102125.09;;;0.24;100.00
81033;BME280;70514;52.478;6.102;2023-12-07T06:28:58;102120.72;;;-0.13;100.00
81033;BME280;70514;52.478;6.102;2023-12-07T06:31:26;102116.75;;;-0.10;100.00
81033;BME280;70514;52.478;6.102;2023-12-07T06:33:54;102123.38;;;-0.35;100.00
81033;BME280;70514;52.478;6.102;2023-12-07T06:36:23;102125.00;;;-0.59;100.00
81033;BME280;70514;52.478;6.102;2023-12-07T06:38:51;102132.81;;;-0.56;100.00
81033;BME280;70514;52.478;6.102;2023-12-07T06:41:19;102125.53;;;-0.51;100.00
81033;BME280;70514;52.478;6.102;2023-12-07T06:43:47;102140.44;;;-0.89;100.00
81033;BME280;70514;52.478;6.102;2023-12-07T06:46:15;102137.19;;;-0.98;100.00
81033;BME280;70514;52.478;6.102;2023-12-07T06:48:44;102125.25;;;0.03;100.00
81033;BME280;70514;52.478;6.102;2023-12-07T06:51:12;102129.22;;;-0.81;100.00
81033;BME280;70514;52.478;6.102;2023-12-07T06:53:44;102131.72;;;0.59;100.00
81033;BME280;70514;52.478;6.102;2023-12-07T06:56:12;102131.69;;;0.95;100.00
81033;BME280;70514;52.478;6.102;2023-12-07T06:58:40;102127.78;;;-0.21;100.00
81033;BME280;70514;52.478;6.102;2023-12-07T07:01:08;102133.72;;;-0.20;100.00
81033;BME280;70514;52.478;6.102;2023-12-07T07:03:36;102135.59;;;-0.18;100.00
81033;BME280;70514;52.478;6.102;2023-12-07T07:06:04;102136.34;;;-0.54;100.00
81033;BME280;70514;52.478;6.102;2023-12-07T07:08:32;102130.78;;;0.81;100.00
81033;BME280;70514;52.478;6.102;2023-12-07T07:11:00;102138.34;;;-0.26;100.00
81033;BME280;70514;52.478;6.102;2023-12-07T07:13:28;102135.75;;;-1.06;100.00
81033;BME280;70514;52.478;6.102;2023-12-07T07:15:56;102134.47;;;-1.23;100.00
81033;BME280;70514;52.478;6.102;2023-12-07T07:18:23;102136.38;;;-1.42;100.00
81033;BME280;70514;52.478;6.102;2023-12-07T07:20:53;102131.28;;;-1.64;100.00
81033;BME280;70514;52.478;6.102;2023-12-07T07:23:20;102138.47;;;-1.58;100.00
81033;BME280;70514;52.478;6.102;2023-12-07T07:25:48;102140.28;;;-1.67;100.00
81033;BME280;70514;52.478;6.102;2023-12-07T07:28:16;102143.88;;;-1.54;100.00
81033;BME280;70514;52.478;6.102;2023-12-07T07:30:44;102151.97;;;-1.58;100.00
81033;BME280;70514;52.478;6.102;2023-12-07T07:33:11;102154.78;;;-1.65;100.00
81033;BME280;70514;52.478;6.102;2023-12-07T07:35:39;102154.28;;;-1.61;100.00
81033;BME280;70514;52.478;6.102;2023-12-07T07:38:07;102160.53;;;-1.78;100.00
81033;BME280;70514;52.478;6.102;2023-12-07T07:40:35;102156.00;;;-1.60;100.00
81033;BME280;70514;52.478;6.102;2023-12-07T07:43:03;102150.59;;;-1.64;100.00
81033;BME280;70514;52.478;6.102;2023-12-07T07:45:31;102151.09;;;-1.58;100.00
81033;BME280;70514;52.478;6.102;2023-12-07T07:47:59;102154.63;;;-1.56;100.00
81033;BME280;70514;52.478;6.102;2023-12-07T07:50:27;102155.41;;;-1.36;100.00
81033;BME280;70514;52.478;6.102;2023-12-07T07:52:55;102160.00;;;-1.08;100.00
81033;BME280;70514;52.478;6.102;2023-12-07T07:55:24;102162.03;;;-1.26;100.00
81033;BME280;70514;52.478;6.102;2023-12-07T07:57:51;102153.19;;;-0.43;100.00
81033;BME280;70514;52.478;6.102;2023-12-07T08:00:19;102157.88;;;-1.25;100.00
81033;BME280;70514;52.478;6.102;2023-12-07T08:02:47;102153.56;;;-1.26;100.00
81033;BME280;70514;52.478;6.102;2023-12-07T08:05:15;102151.78;;;-1.49;100.00
81033;BME280;70514;52.478;6.102;2023-12-07T08:07:42;102155.34;;;-1.04;100.00
81033;BME280;70514;52.478;6.102;2023-12-07T08:10:10;102162.19;;;-1.35;100.00
81033;BME280;70514;52.478;6.102;2023-12-07T08:12:39;102154.94;;;-1.20;100.00
81033;BME280;70514;52.478;6.102;2023-12-07T08:15:09;102159.91;;;-1.10;100.00
81033;BME280;70514;52.478;6.102;2023-12-07T08:17:40;102165.47;;;-1.14;100.00
81033;BME280;70514;52.478;6.102;2023-12-07T08:20:09;102159.19;;;-0.64;100.00
81033;BME280;70514;52.478;6.102;2023-12-07T08:22:40;102164.72;;;-1.13;100.00
81033;BME280;70514;52.478;6.102;2023-12-07T08:25:11;102167.09;;;-1.04;100.00
81033;BME280;70514;52.478;6.102;2023-12-07T08:27:39;102167.31;;;-1.23;100.00
81033;BME280;70514;52.478;6.102;2023-12-07T08:30:07;102158.38;;;-1.08;100.00
81033;BME280;70514;52.478;6.102;2023-12-07T08:32:38;102151.97;;;-0.48;100.00
81033;BME280;70514;52.478;6.102;2023-12-07T08:35:06;102165.88;;;-1.09;100.00
81033;BME280;70514;52.478;6.102;2023-12-07T08:37:37;102163.63;;;-1.16;100.00
81033;BME280;70514;52.478;6.102;2023-12-07T08:40:06;102165.44;;;-1.25;100.00
81033;BME280;70514;52.478;6.102;2023-12-07T08:42:33;102166.94;;;-0.84;100.00
81033;BME280;70514;52.478;6.102;2023-12-07T08:45:01;102157.84;;;-0.70;100.00
81033;BME280;70514;52.478;6.102;2023-12-07T08:47:29;102165.19;;;-1.07;100.00
81033;BME280;70514;52.478;6.102;2023-12-07T08:49:59;102158.84;;;-1.02;100.00
81033;BME280;70514;52.478;6.102;2023-12-07T08:52:27;102160.66;;;-0.89;100.00
81033;BME280;70514;52.478;6.102;2023-12-07T08:55:14;102146.03;;;-0.48;100.00
81033;BME280;70514;52.478;6.102;2023-12-07T08:57:43;102155.19;;;-0.72;100.00
81033;BME280;70514;52.478;6.102;2023-12-07T09:00:11;102164.03;;;-1.00;100.00
81033;BME280;70514;52.478;6.102;2023-12-07T09:02:41;102150.59;;;-0.66;100.00
81033;BME280;70514;52.478;6.102;2023-12-07T09:05:15;102152.94;;;-0.91;100.00
81033;BME280;70514;52.478;6.102;2023-12-07T09:07:43;102160.16;;;-0.73;100.00
81033;BME280;70514;52.478;6.102;2023-12-07T09:10:11;102162.66;;;-0.28;100.00
81033;BME280;70514;52.478;6.102;2023-12-07T09:12:39;102153.28;;;-0.29;100.00
81033;BME280;70514;52.478;6.102;2023-12-07T09:15:07;102149.22;;;-0.39;100.00
81033;BME280;70514;52.478;6.102;2023-12-07T09:17:39;102140.88;;;-0.26;100.00
81033;BME280;70514;52.478;6.102;2023-12-07T09:20:08;102144.50;;;0.12;100.00
81033;BME280;70514;52.478;6.102;2023-12-07T09:22:45;102146.03;;;-0.48;100.00
81033;BME280;70514;52.478;6.102;2023-12-07T09:25:15;102137.13;;;-0.88;100.00
81033;BME280;70514;52.478;6.102;2023-12-07T09:27:44;102141.75;;;-0.14;100.00
81033;BME280;70514;52.478;6.102;2023-12-07T09:30:12;102148.78;;;-0.10;100.00
81033;BME280;70514;52.478;6.102;2023-12-07T09:32:41;102143.59;;;-0.58;100.00
81033;BME280;70514;52.478;6.102;2023-12-07T09:35:12;102140.56;;;-0.76;100.00
81033;BME280;70514;52.478;6.102;2023-12-07T09:37:43;102141.19;;;-0.45;100.00
81033;BME280;70514;52.478;6.102;2023-12-07T09:40:19;102138.88;;;-0.30;100.00
81033;BME280;70514;52.478;6.102;2023-12-07T09:42:50;102137.75;;;-0.46;100.00
81033;BME280;70514;52.478;6.102;2023-12-07T09:45:19;102136.47;;;-0.17;100.00
81033;BME280;70514;52.478;6.102;2023-12-07T09:47:49;102137.75;;;-0.46;100.00
81033;BME280;70514;52.478;6.102;2023-12-07T09:50:19;102139.09;;;-0.39;100.00
81033;BME280;70514;52.478;6.102;2023-12-07T09:52:51;102142.13;;;-0.66;100.00
81033;BME280;70514;52.478;6.102;2023-12-07T09:55:33;102130.50;;;-0.53;100.00
81033;BME280;70514;52.478;6.102;2023-12-07T09:58:05;102131.13;;;-0.78;100.00
81033;BME280;70514;52.478;6.102;2023-12-07T10:00:36;102135.72;;;-0.16;100.00
81033;BME280;70514;52.478;6.102;2023-12-07T10:03:06;102136.19;;;-0.67;100.00
81033;BME280;70514;52.478;6.102;2023-12-07T10:05:59;102131.41;;;-0.52;100.00
81033;BME280;70514;52.478;6.102;2023-12-07T10:08:32;102131.78;;;-0.69;100.00
81033;BME280;70514;52.478;6.102;2023-12-07T10:11:07;102131.38;;;-0.64;100.00
81033;BME280;70514;52.478;6.102;2023-12-07T10:13:36;102125.19;;;-0.67;100.00
81033;BME280;70514;52.478;6.102;2023-12-07T10:16:12;102117.44;;;-0.12;100.00
81033;BME280;70514;52.478;6.102;2023-12-07T10:18:42;102109.31;;;-0.31;100.00
81033;BME280;70514;52.478;6.102;2023-12-07T10:21:12;102120.78;;;-0.70;100.00
81033;BME280;70514;52.478;6.102;2023-12-07T10:23:42;102119.09;;;-0.48;100.00
81033;BME280;70514;52.478;6.102;2023-12-07T10:26:16;102114.44;;;-0.65;100.00
81033;BME280;70514;52.478;6.102;2023-12-07T10:28:51;102117.19;;;-0.50;100.00
81033;BME280;70514;52.478;6.102;2023-12-07T10:31:22;102111.91;;;-0.30;100.00
81033;BME280;70514;52.478;6.102;2023-12-07T10:33:52;102111.94;;;-0.41;100.00
81033;BME280;70514;52.478;6.102;2023-12-07T10:36:20;102108.56;;;0.29;100.00
81033;BME280;70514;52.478;6.102;2023-12-07T10:38:48;102113.91;;;-0.37;100.00
81033;BME280;70514;52.478;6.102;2023-12-07T10:41:20;102116.84;;;0.63;100.00
81033;BME280;70514;52.478;6.102;2023-12-07T10:43:52;102085.22;;;0.83;100.00
81033;BME280;70514;52.478;6.102;2023-12-07T10:46:21;102094.72;;;0.13;100.00
81033;BME280;70514;52.478;6.102;2023-12-07T10:48:53;102095.41;;;0.10;100.00
81033;BME280;70514;52.478;6.102;2023-12-07T10:51:32;102091.88;;;-0.15;100.00
81033;BME280;70514;52.478;6.102;2023-12-07T10:54:03;102093.00;;;-0.23;100.00
81033;BME280;70514;52.478;6.102;2023-12-07T10:56:38;102080.34;;;-0.23;100.00
81033;BME280;70514;52.478;6.102;2023-12-07T10:59:12;102078.59;;;-0.48;100.00
81033;BME280;70514;52.478;6.102;2023-12-07T11:01:56;102087.59;;;-0.51;100.00
81033;BME280;70514;52.478;6.102;2023-12-07T11:04:25;102079.03;;;-0.53;100.00
81033;BME280;70514;52.478;6.102;2023-12-07T11:06:56;102083.56;;;-0.37;100.00
81033;BME280;70514;52.478;6.102;2023-12-07T11:09:31;102079.13;;;-0.52;100.00
81033;BME280;70514;52.478;6.102;2023-12-07T11:12:09;102079.13;;;-0.52;100.00
81033;BME280;70514;52.478;6.102;2023-12-07T11:14:39;102072.94;;;0.03;100.00
81033;BME280;70514;52.478;6.102;2023-12-07T11:17:06;102070.22;;;0.00;100.00
81033;BME280;70514;52.478;6.102;2023-12-07T11:22:11;102053.84;;;-0.17;100.00
81033;BME280;70514;52.478;6.102;2023-12-07T11:24:57;102050.09;;;-0.45;100.00
81033;BME280;70514;52.478;6.102;2023-12-07T11:27:29;102052.50;;;-0.70;100.00
81033;BME280;70514;52.478;6.102;2023-12-07T11:30:02;102040.50;;;-0.72;100.00
81033;BME280;70514;52.478;6.102;2023-12-07T11:32:29;102041.84;;;-0.66;100.00
81033;BME280;70514;52.478;6.102;2023-12-07T11:35:04;102041.41;;;-0.60;100.00
81033;BME280;70514;52.478;6.102;2023-12-07T11:38:02;102046.38;;;-0.38;100.00
81033;BME280;70514;52.478;6.102;2023-12-07T11:40:32;102038.34;;;-0.45;100.00
81033;BME280;70514;52.478;6.102;2023-12-07T11:43:00;102032.63;;;-0.54;100.00
81033;BME280;70514;52.478;6.102;2023-12-07T11:45:42;102023.78;;;-0.24;100.00
81033;BME280;70514;52.478;6.102;2023-12-07T11:48:16;102024.25;;;0.43;100.00
81033;BME280;70514;52.478;6.102;2023-12-07T11:51:08;102032.28;;;-0.35;100.00
81033;BME280;70514;52.478;6.102;2023-12-07T11:53:37;102024.59;;;-0.36;100.00
81033;BME280;70514;52.478;6.102;2023-12-07T11:56:07;102021.94;;;-0.50;100.00
81033;BME280;70514;52.478;6.102;2023-12-07T11:58:36;102019.22;;;-0.53;100.00
81033;BME280;70514;52.478;6.102;2023-12-07T12:01:08;102022.25;;;-0.57;100.00
81033;BME280;70514;52.478;6.102;2023-12-07T12:03:36;102004.75;;;-0.19;100.00
81033;BME280;70514;52.478;6.102;2023-12-07T12:06:06;102001.81;;;0.36;100.00
81033;BME280;70514;52.478;6.102;2023-12-07T12:08:36;102006.88;;;-0.36;100.00
81033;BME280;70514;52.478;6.102;2023-12-07T12:11:04;101997.28;;;-0.40;100.00
81033;BME280;70514;52.478;6.102;2023-12-07T12:13:34;102012.28;;;-0.44;100.00
81033;BME280;70514;52.478;6.102;2023-12-07T12:16:03;102001.69;;;-0.38;100.00
81033;BME280;70514;52.478;6.102;2023-12-07T12:18:34;102002.78;;;-0.23;100.00
81033;BME280;70514;52.478;6.102;2023-12-07T12:21:03;101995.94;;;-0.24;100.00
81033;BME280;70514;52.478;6.102;2023-12-07T12:23:31;101992.00;;;0.79;100.00
81033;BME280;70514;52.478;6.102;2023-12-07T12:25:59;101990.28;;;0.28;100.00
81033;BME280;70514;52.478;6.102;2023-12-07T12:28:28;101989.22;;;-0.12;100.00
81033;BME280;70514;52.478;6.102;2023-12-07T12:30:56;101977.97;;;-0.04;100.00
81033;BME280;70514;52.478;6.102;2023-12-07T12:33:24;101973.91;;;-0.02;100.00
81033;BME280;70514;52.478;6.102;2023-12-07T12:36:06;101963.63;;;0.71;100.00
81033;BME280;70514;52.478;6.102;2023-12-07T12:38:34;101957.91;;;0.36;100.00
81033;BME280;70514;52.478;6.102;2023-12-07T12:41:10;101959.63;;;0.12;100.00
81033;BME280;70514;52.478;6.102;2023-12-07T12:43:39;101960.50;;;0.13;100.00
81033;BME280;70514;52.478;6.102;2023-12-07T12:46:07;101941.66;;;0.46;100.00
81033;BME280;70514;52.478;6.102;2023-12-07T12:48:35;101953.91;;;0.15;100.00
81033;BME280;70514;52.478;6.102;2023-12-07T12:51:12;101957.56;;;0.07;100.00
81033;BME280;70514;52.478;6.102;2023-12-07T12:53:46;101948.78;;;0.02;100.00
81033;BME280;70514;52.478;6.102;2023-12-07T12:56:20;101951.00;;;0.98;100.00
81033;BME280;70514;52.478;6.102;2023-12-07T12:58:49;101936.06;;;1.02;100.00